sensor_id;sensor_type;location;lat;lon;timestamp;temperature;humidity
61253;DHT22;47127;47.516;8.596;2024-03-22T00:01:48;10.70;99.90
61253;DHT22;47127;47.516;8.596;2024-03-22T00:04:15;10.70;99.90
61253;DHT22;47127;47.516;8.596;2024-03-22T00:06:42;10.70;99.90
61253;DHT22;47127;47.516;8.596;2024-03-22T00:09:09;10.60;99.90
61253;DHT22;47127;47.516;8.596;2024-03-22T00:11:35;10.60;99.90
61253;DHT22;47127;47.516;8.596;2024-03-22T00:14:01;10.50;99.90
61253;DHT22;47127;47.516;8.596;2024-03-22T00:16:27;10.60;99.90
61253;DHT22;47127;47.516;8.596;2024-03-22T00:18:52;10.50;99.90
61253;DHT22;47127;47.516;8.596;2024-03-22T00:21:18;10.50;99.90
61253;DHT22;47127;47.516;8.596;2024-03-22T00:23:47;10.40;99.90
61253;DHT22;47127;47.516;8.596;2024-03-22T00:26:12;10.20;99.90
61253;DHT22;47127;47.516;8.596;2024-03-22T00:28:38;10.20;99.90
61253;DHT22;47127;47.516;8.596;2024-03-22T00:31:05;10.10;99.90
61253;DHT22;47127;47.516;8.596;2024-03-22T00:33:30;10.10;99.90
61253;DHT22;47127;47.516;8.596;2024-03-22T00:35:58;10.10;99.90
61253;DHT22;47127;47.516;8.596;2024-03-22T00:38:23;10.10;99.90
61253;DHT22;47127;47.516;8.596;2024-03-22T00:40:49;10.10;99.90
61253;DHT22;47127;47.516;8.596;2024-03-22T00:43:15;10.10;99.90
61253;DHT22;47127;47.516;8.596;2024-03-22T00:45:40;10.00;99.90
61253;DHT22;47127;47.516;8.596;2024-03-22T00:48:06;10.00;99.90
61253;DHT22;47127;47.516;8.596;2024-03-22T00:50:32;9.90;99.90
61253;DHT22;47127;47.516;8.596;2024-03-22T00:52:57;9.80;99.90
61253;DHT22;47127;47.516;8.596;2024-03-22T00:55:23;9.80;99.90
61253;DHT22;47127;47.516;8.596;2024-03-22T00:57:49;9.90;99.90
61253;DHT22;47127;47.516;8.596;2024-03-22T01:00:15;9.90;99.90
61253;DHT22;47127;47.516;8.596;2024-03-22T01:02:42;10.00;99.90
61253;DHT22;47127;47.516;8.596;2024-03-22T01:05:07;10.00;99.90
61253;DHT22;47127;47.516;8.596;2024-03-22T01:07:33;9.90;99.90
61253;DHT22;47127;47.516;8.596;2024-03-22T01:09:59;10.00;99.90
61253;DHT22;47127;47.516;8.596;2024-03-22T01:12:25;10.00;99.90
61253;DHT22;47127;47.516;8.596;2024-03-22T01:14:51;10.00;99.90
61253;DHT22;47127;47.516;8.596;2024-03-22T01:17:17;10.00;99.90
61253;DHT22;47127;47.516;8.596;2024-03-22T01:19:42;9.90;99.90
61253;DHT22;47127;47.516;8.596;2024-03-22T01:22:08;9.90;99.90
61253;DHT22;47127;47.516;8.596;2024-03-22T01:24:33;9.70;99.90
61253;DHT22;47127;47.516;8.596;2024-03-22T01:26:59;9.70;99.90
61253;DHT22;47127;47.516;8.596;2024-03-22T01:29:24;9.70;99.90
61253;DHT22;47127;47.516;8.596;2024-03-22T01:31:50;9.70;99.90
61253;DHT22;47127;47.516;8.596;2024-03-22T01:34:16;9.70;99.90
61253;DHT22;47127;47.516;8.596;2024-03-22T01:36:42;9.70;99.90
61253;DHT22;47127;47.516;8.596;2024-03-22T01:39:09;9.70;99.90
61253;DHT22;47127;47.516;8.596;2024-03-22T01:41:35;9.60;99.90
61253;DHT22;47127;47.516;8.596;2024-03-22T01:44:00;9.60;99.90
61253;DHT22;47127;47.516;8.596;2024-03-22T01:46:26;9.60;99.90
61253;DHT22;47127;47.516;8.596;2024-03-22T01:48:52;9.60;99.90
61253;DHT22;47127;47.516;8.596;2024-03-22T01:51:18;9.60;99.90
61253;DHT22;47127;47.516;8.596;2024-03-22T01:53:43;9.70;99.90
61253;DHT22;47127;47.516;8.596;2024-03-22T01:56:10;9.70;99.90
61253;DHT22;47127;47.516;8.596;2024-03-22T01:58:36;9.70;99.90
61253;DHT22;47127;47.516;8.596;2024-03-22T02:01:02;9.60;99.90
61253;DHT22;47127;47.516;8.596;2024-03-22T02:03:28;9.60;99.90
61253;DHT22;47127;47.516;8.596;2024-03-22T02:05:53;9.70;99.90
61253;DHT22;47127;47.516;8.596;2024-03-22T02:08:19;9.70;99.90
61253;DHT22;47127;47.516;8.596;2024-03-22T02:10:45;9.70;99.90
61253;DHT22;47127;47.516;8.596;2024-03-22T02:13:10;9.70;99.90
61253;DHT22;47127;47.516;8.596;2024-03-22T02:15:36;9.70;99.90
61253;DHT22;47127;47.516;8.596;2024-03-22T02:18:01;9.60;99.90
61253;DHT22;47127;47.516;8.596;2024-03-22T02:20:27;9.50;99.90
61253;DHT22;47127;47.516;8.596;2024-03-22T02:22:53;9.40;99.90
61253;DHT22;47127;47.516;8.596;2024-03-22T02:25:18;9.10;99.90
61253;DHT22;47127;47.516;8.596;2024-03-22T02:27:44;9.00;99.90
61253;DHT22;47127;47.516;8.596;2024-03-22T02:30:09;9.10;99.90
61253;DHT22;47127;47.516;8.596;2024-03-22T02:32:35;9.30;99.90
61253;DHT22;47127;47.516;8.596;2024-03-22T02:35:02;9.30;99.90
61253;DHT22;47127;47.516;8.596;2024-03-22T02:37:28;9.30;99.90
61253;DHT22;47127;47.516;8.596;2024-03-22T02:39:53;9.30;99.90
61253;DHT22;47127;47.516;8.596;2024-03-22T02:42:19;9.30;99.90
61253;DHT22;47127;47.516;8.596;2024-03-22T02:44:44;9.20;99.90
61253;DHT22;47127;47.516;8.596;2024-03-22T02:47:10;9.10;99.90
61253;DHT22;47127;47.516;8.596;2024-03-22T02:49:37;9.10;99.90
61253;DHT22;47127;47.516;8.596;2024-03-22T02:52:03;9.00;99.90
61253;DHT22;47127;47.516;8.596;2024-03-22T02:54:29;9.00;99.90
61253;DHT22;47127;47.516;8.596;2024-03-22T02:56:55;9.00;99.90
61253;DHT22;47127;47.516;8.596;2024-03-22T02:59:20;9.10;99.90
61253;DHT22;47127;47.516;8.596;2024-03-22T03:01:46;9.10;99.90
61253;DHT22;47127;47.516;8.596;2024-03-22T03:04:12;9.10;99.90
61253;DHT22;47127;47.516;8.596;2024-03-22T03:06:37;9.20;99.90
61253;DHT22;47127;47.516;8.596;2024-03-22T03:09:03;9.20;99.90
61253;DHT22;47127;47.516;8.596;2024-03-22T03:11:32;9.30;99.90
61253;DHT22;47127;47.516;8.596;2024-03-22T03:13:58;9.30;99.90
61253;DHT22;47127;47.516;8.596;2024-03-22T03:16:23;9.40;99.90
61253;DHT22;47127;47.516;8.596;2024-03-22T03:18:50;9.30;99.90
61253;DHT22;47127;47.516;8.596;2024-03-22T03:21:17;9.30;99.90
61253;DHT22;47127;47.516;8.596;2024-03-22T03:23:42;9.20;99.90
61253;DHT22;47127;47.516;8.596;2024-03-22T03:26:08;9.10;99.90
61253;DHT22;47127;47.516;8.596;2024-03-22T03:28:33;9.10;99.90
61253;DHT22;47127;47.516;8.596;2024-03-22T03:30:59;9.10;99.90
61253;DHT22;47127;47.516;8.596;2024-03-22T03:33:24;9.10;99.90
61253;DHT22;47127;47.516;8.596;2024-03-22T03:35:50;9.00;99.90
61253;DHT22;47127;47.516;8.596;2024-03-22T03:38:15;9.00;99.90
61253;DHT22;47127;47.516;8.596;2024-03-22T03:40:41;9.00;99.90
61253;DHT22;47127;47.516;8.596;2024-03-22T03:43:06;9.00;99.90
61253;DHT22;47127;47.516;8.596;2024-03-22T03:45:32;9.00;99.90
61253;DHT22;47127;47.516;8.596;2024-03-22T03:47:57;9.10;99.90
61253;DHT22;47127;47.516;8.596;2024-03-22T03:50:23;9.00;99.90
61253;DHT22;47127;47.516;8.596;2024-03-22T03:52:49;9.10;99.90
61253;DHT22;47127;47.516;8.596;2024-03-22T03:55:14;9.20;99.90
61253;DHT22;47127;47.516;8.596;2024-03-22T03:57:40;9.20;99.90
61253;DHT22;47127;47.516;8.596;2024-03-22T04:00:06;9.20;99.90
61253;DHT22;47127;47.516;8.596;2024-03-22T04:02:32;9.10;99.90
61253;DHT22;47127;47.516;8.596;2024-03-22T04:04:57;9.10;99.90
61253;DHT22;47127;47.516;8.596;2024-03-22T04:07:23;9.00;99.90
61253;DHT22;47127;47.516;8.596;2024-03-22T04:09:49;8.90;99.90
61253;DHT22;47127;47.516;8.596;2024-03-22T04:12:14;9.00;99.90
61253;DHT22;47127;47.516;8.596;2024-03-22T04:14:40;9.00;99.90
61253;DHT22;47127;47.516;8.596;2024-03-22T04:17:05;9.00;99.90
61253;DHT22;47127;47.516;8.596;2024-03-22T04:19:31;9.00;99.90
61253;DHT22;47127;47.516;8.596;2024-03-22T04:21:56;9.00;99.90
61253;DHT22;47127;47.516;8.596;2024-03-22T04:24:22;8.90;99.90
61253;DHT22;47127;47.516;8.596;2024-03-22T04:26:48;9.00;99.90
61253;DHT22;47127;47.516;8.596;2024-03-22T04:29:13;9.00;99.90
61253;DHT22;47127;47.516;8.596;2024-03-22T04:31:39;9.00;99.90
61253;DHT22;47127;47.516;8.596;2024-03-22T04:34:04;9.10;99.90
61253;DHT22;47127;47.516;8.596;2024-03-22T04:36:33;9.10;99.90
61253;DHT22;47127;47.516;8.596;2024-03-22T04:38:59;9.10;99.90
61253;DHT22;47127;47.516;8.596;2024-03-22T04:41:25;9.20;99.90
61253;DHT22;47127;47.516;8.596;2024-03-22T04:43:50;9.20;99.90
61253;DHT22;47127;47.516;8.596;2024-03-22T04:46:17;9.10;99.90
61253;DHT22;47127;47.516;8.596;2024-03-22T04:48:42;9.20;99.90
61253;DHT22;47127;47.516;8.596;2024-03-22T04:51:08;9.30;99.90
61253;DHT22;47127;47.516;8.596;2024-03-22T04:53:35;9.40;99.90
61253;DHT22;47127;47.516;8.596;2024-03-22T04:56:00;9.40;99.90
61253;DHT22;47127;47.516;8.596;2024-03-22T04:58:27;9.30;99.90
61253;DHT22;47127;47.516;8.596;2024-03-22T05:00:57;9.30;99.90
61253;DHT22;47127;47.516;8.596;2024-03-22T05:03:22;9.40;99.90
61253;DHT22;47127;47.516;8.596;2024-03-22T05:05:50;9.40;99.90
61253;DHT22;47127;47.516;8.596;2024-03-22T05:08:15;9.40;99.90
61253;DHT22;47127;47.516;8.596;2024-03-22T05:10:41;9.40;99.90
61253;DHT22;47127;47.516;8.596;2024-03-22T05:13:07;9.50;99.90
61253;DHT22;47127;47.516;8.596;2024-03-22T05:15:34;9.60;99.90
61253;DHT22;47127;47.516;8.596;2024-03-22T05:18:00;9.60;99.90
61253;DHT22;47127;47.516;8.596;2024-03-22T05:20:26;9.60;99.90
61253;DHT22;47127;47.516;8.596;2024-03-22T05:22:52;9.60;99.90
61253;DHT22;47127;47.516;8.596;2024-03-22T05:25:17;9.60;99.90
61253;DHT22;47127;47.516;8.596;2024-03-22T05:27:44;9.60;99.90
61253;DHT22;47127;47.516;8.596;2024-03-22T05:30:11;9.60;99.90
61253;DHT22;47127;47.516;8.596;2024-03-22T05:32:37;9.60;99.90
61253;DHT22;47127;47.516;8.596;2024-03-22T05:35:06;9.50;99.90
61253;DHT22;47127;47.516;8.596;2024-03-22T05:37:32;9.50;99.90
61253;DHT22;47127;47.516;8.596;2024-03-22T05:39:59;9.50;99.90
61253;DHT22;47127;47.516;8.596;2024-03-22T05:42:28;9.50;99.90
61253;DHT22;47127;47.516;8.596;2024-03-22T05:44:55;9.70;99.90
61253;DHT22;47127;47.516;8.596;2024-03-22T05:47:21;9.80;99.90
61253;DHT22;47127;47.516;8.596;2024-03-22T05:49:47;9.80;99.90
61253;DHT22;47127;47.516;8.596;2024-03-22T05:52:12;9.90;99.90
61253;DHT22;47127;47.516;8.596;2024-03-22T05:54:38;9.90;99.90
61253;DHT22;47127;47.516;8.596;2024-03-22T05:57:04;9.90;99.90
61253;DHT22;47127;47.516;8.596;2024-03-22T05:59:30;9.90;99.90
61253;DHT22;47127;47.516;8.596;2024-03-22T06:01:56;9.90;99.90
61253;DHT22;47127;47.516;8.596;2024-03-22T06:04:23;9.90;99.90
61253;DHT22;47127;47.516;8.596;2024-03-22T06:06:49;9.90;99.90
61253;DHT22;47127;47.516;8.596;2024-03-22T06:09:15;9.90;99.90
61253;DHT22;47127;47.516;8.596;2024-03-22T06:11:49;10.00;99.90
61253;DHT22;47127;47.516;8.596;2024-03-22T06:14:15;10.00;99.90
61253;DHT22;47127;47.516;8.596;2024-03-22T06:16:41;10.00;99.90
61253;DHT22;47127;47.516;8.596;2024-03-22T06:19:06;10.10;99.90
61253;DHT22;47127;47.516;8.596;2024-03-22T06:21:32;10.20;99.90
61253;DHT22;47127;47.516;8.596;2024-03-22T06:23:57;10.30;99.90
61253;DHT22;47127;47.516;8.596;2024-03-22T06:26:23;10.30;99.90
61253;DHT22;47127;47.516;8.596;2024-03-22T06:28:48;10.30;99.90
61253;DHT22;47127;47.516;8.596;2024-03-22T06:31:15;10.40;99.90
61253;DHT22;47127;47.516;8.596;2024-03-22T06:33:41;10.50;99.90
61253;DHT22;47127;47.516;8.596;2024-03-22T06:36:07;10.60;99.90
61253;DHT22;47127;47.516;8.596;2024-03-22T06:38:33;10.60;99.90
61253;DHT22;47127;47.516;8.596;2024-03-22T06:40:58;10.60;99.90
61253;DHT22;47127;47.516;8.596;2024-03-22T06:43:24;10.60;99.90
61253;DHT22;47127;47.516;8.596;2024-03-22T06:45:50;10.50;99.90
61253;DHT22;47127;47.516;8.596;2024-03-22T06:48:16;10.70;99.90
61253;DHT22;47127;47.516;8.596;2024-03-22T06:50:44;10.80;99.90
61253;DHT22;47127;47.516;8.596;2024-03-22T06:53:11;10.80;99.90
61253;DHT22;47127;47.516;8.596;2024-03-22T06:55:38;10.90;99.90
61253;DHT22;47127;47.516;8.596;2024-03-22T06:58:04;11.00;99.90
61253;DHT22;47127;47.516;8.596;2024-03-22T07:00:30;11.00;99.90
61253;DHT22;47127;47.516;8.596;2024-03-22T07:02:58;11.10;99.90
61253;DHT22;47127;47.516;8.596;2024-03-22T07:05:27;11.20;99.90
61253;DHT22;47127;47.516;8.596;2024-03-22T07:07:53;11.30;99.90
61253;DHT22;47127;47.516;8.596;2024-03-22T07:10:21;11.40;99.90
61253;DHT22;47127;47.516;8.596;2024-03-22T07:12:48;11.40;99.90
61253;DHT22;47127;47.516;8.596;2024-03-22T07:15:14;11.40;99.90
61253;DHT22;47127;47.516;8.596;2024-03-22T07:17:41;11.50;99.90
61253;DHT22;47127;47.516;8.596;2024-03-22T07:20:07;11.70;99.90
61253;DHT22;47127;47.516;8.596;2024-03-22T07:22:32;11.70;99.90
61253;DHT22;47127;47.516;8.596;2024-03-22T07:24:58;11.80;99.90
61253;DHT22;47127;47.516;8.596;2024-03-22T07:27:24;11.80;99.90
61253;DHT22;47127;47.516;8.596;2024-03-22T07:29:49;11.90;99.90
61253;DHT22;47127;47.516;8.596;2024-03-22T07:32:15;11.90;99.90
61253;DHT22;47127;47.516;8.596;2024-03-22T07:34:41;12.00;99.90
61253;DHT22;47127;47.516;8.596;2024-03-22T07:37:07;12.10;99.90
61253;DHT22;47127;47.516;8.596;2024-03-22T07:39:32;12.20;99.90
61253;DHT22;47127;47.516;8.596;2024-03-22T07:41:58;12.40;99.90
61253;DHT22;47127;47.516;8.596;2024-03-22T07:44:23;12.40;99.90
61253;DHT22;47127;47.516;8.596;2024-03-22T07:46:50;12.60;99.90
61253;DHT22;47127;47.516;8.596;2024-03-22T07:49:15;12.60;99.90
61253;DHT22;47127;47.516;8.596;2024-03-22T07:51:42;12.70;99.90
61253;DHT22;47127;47.516;8.596;2024-03-22T07:54:08;12.70;99.90
61253;DHT22;47127;47.516;8.596;2024-03-22T07:56:33;12.80;99.90
61253;DHT22;47127;47.516;8.596;2024-03-22T07:58:59;13.00;99.90
61253;DHT22;47127;47.516;8.596;2024-03-22T08:01:25;13.20;99.90
61253;DHT22;47127;47.516;8.596;2024-03-22T08:03:53;13.10;99.90
61253;DHT22;47127;47.516;8.596;2024-03-22T08:06:19;13.20;99.90
61253;DHT22;47127;47.516;8.596;2024-03-22T08:08:45;13.20;99.90
61253;DHT22;47127;47.516;8.596;2024-03-22T08:11:10;13.40;99.90
61253;DHT22;47127;47.516;8.596;2024-03-22T08:13:37;13.50;99.90
61253;DHT22;47127;47.516;8.596;2024-03-22T08:16:05;13.50;99.90
61253;DHT22;47127;47.516;8.596;2024-03-22T08:18:31;13.70;99.90
61253;DHT22;47127;47.516;8.596;2024-03-22T08:20:58;13.70;99.90
61253;DHT22;47127;47.516;8.596;2024-03-22T08:23:24;13.70;99.90
61253;DHT22;47127;47.516;8.596;2024-03-22T08:25:50;13.70;99.90
61253;DHT22;47127;47.516;8.596;2024-03-22T08:28:15;13.80;99.90
61253;DHT22;47127;47.516;8.596;2024-03-22T08:30:41;13.90;99.90
61253;DHT22;47127;47.516;8.596;2024-03-22T08:33:10;14.10;99.90
61253;DHT22;47127;47.516;8.596;2024-03-22T08:35:39;14.10;99.90
61253;DHT22;47127;47.516;8.596;2024-03-22T08:38:05;14.00;99.90
61253;DHT22;47127;47.516;8.596;2024-03-22T08:40:39;14.10;99.90
61253;DHT22;47127;47.516;8.596;2024-03-22T08:43:05;14.10;99.90
61253;DHT22;47127;47.516;8.596;2024-03-22T08:45:33;14.00;99.90
61253;DHT22;47127;47.516;8.596;2024-03-22T08:47:58;14.10;99.90
61253;DHT22;47127;47.516;8.596;2024-03-22T08:50:25;14.10;99.90
61253;DHT22;47127;47.516;8.596;2024-03-22T08:52:51;14.20;99.90
61253;DHT22;47127;47.516;8.596;2024-03-22T08:55:17;14.20;99.90
61253;DHT22;47127;47.516;8.596;2024-03-22T08:57:42;14.10;99.90
61253;DHT22;47127;47.516;8.596;2024-03-22T09:00:09;14.20;99.90
61253;DHT22;47127;47.516;8.596;2024-03-22T09:02:35;14.30;99.90
61253;DHT22;47127;47.516;8.596;2024-03-22T09:05:00;14.20;99.90
61253;DHT22;47127;47.516;8.596;2024-03-22T09:07:26;14.30;99.90
61253;DHT22;47127;47.516;8.596;2024-03-22T09:09:52;14.50;99.90
61253;DHT22;47127;47.516;8.596;2024-03-22T09:12:19;14.50;99.90
61253;DHT22;47127;47.516;8.596;2024-03-22T09:14:44;14.50;99.90
61253;DHT22;47127;47.516;8.596;2024-03-22T09:17:10;14.30;99.90
61253;DHT22;47127;47.516;8.596;2024-03-22T09:19:37;14.30;99.90
61253;DHT22;47127;47.516;8.596;2024-03-22T09:22:02;14.40;99.90
61253;DHT22;47127;47.516;8.596;2024-03-22T09:24:28;14.50;99.90
61253;DHT22;47127;47.516;8.596;2024-03-22T09:26:54;14.50;99.90
61253;DHT22;47127;47.516;8.596;2024-03-22T09:29:20;14.50;99.90
61253;DHT22;47127;47.516;8.596;2024-03-22T09:31:46;14.70;99.90
61253;DHT22;47127;47.516;8.596;2024-03-22T09:34:12;14.70;99.90
61253;DHT22;47127;47.516;8.596;2024-03-22T09:36:38;14.70;99.90
61253;DHT22;47127;47.516;8.596;2024-03-22T09:39:03;14.80;99.90
61253;DHT22;47127;47.516;8.596;2024-03-22T09:41:31;14.80;99.90
61253;DHT22;47127;47.516;8.596;2024-03-22T09:43:58;14.70;99.90
61253;DHT22;47127;47.516;8.596;2024-03-22T09:46:26;14.90;99.90
61253;DHT22;47127;47.516;8.596;2024-03-22T09:48:53;14.90;99.90
61253;DHT22;47127;47.516;8.596;2024-03-22T09:51:21;15.10;99.90
61253;DHT22;47127;47.516;8.596;2024-03-22T09:53:48;15.20;99.90
61253;DHT22;47127;47.516;8.596;2024-03-22T09:56:15;15.20;99.90
61253;DHT22;47127;47.516;8.596;2024-03-22T09:58:41;15.20;99.90
61253;DHT22;47127;47.516;8.596;2024-03-22T10:01:07;15.20;99.90
61253;DHT22;47127;47.516;8.596;2024-03-22T10:03:33;15.20;99.90
61253;DHT22;47127;47.516;8.596;2024-03-22T10:05:59;15.30;99.90
61253;DHT22;47127;47.516;8.596;2024-03-22T10:08:24;15.40;99.90
61253;DHT22;47127;47.516;8.596;2024-03-22T10:10:50;15.60;99.90
61253;DHT22;47127;47.516;8.596;2024-03-22T10:13:16;15.50;99.90
61253;DHT22;47127;47.516;8.596;2024-03-22T10:15:41;15.20;99.90
61253;DHT22;47127;47.516;8.596;2024-03-22T10:18:07;15.20;99.90
61253;DHT22;47127;47.516;8.596;2024-03-22T10:20:34;15.40;99.90
61253;DHT22;47127;47.516;8.596;2024-03-22T10:22:59;15.50;99.90
61253;DHT22;47127;47.516;8.596;2024-03-22T10:25:28;15.40;99.90
61253;DHT22;47127;47.516;8.596;2024-03-22T10:27:55;15.60;99.90
61253;DHT22;47127;47.516;8.596;2024-03-22T10:30:21;15.70;99.90
61253;DHT22;47127;47.516;8.596;2024-03-22T10:32:48;15.90;99.90
61253;DHT22;47127;47.516;8.596;2024-03-22T10:35:15;15.90;99.40
61253;DHT22;47127;47.516;8.596;2024-03-22T10:37:42;16.10;99.30
61253;DHT22;47127;47.516;8.596;2024-03-22T10:40:08;16.10;98.50
61253;DHT22;47127;47.516;8.596;2024-03-22T10:42:41;16.10;98.40
61253;DHT22;47127;47.516;8.596;2024-03-22T10:45:08;16.10;97.70
61253;DHT22;47127;47.516;8.596;2024-03-22T10:47:36;16.10;97.00
61253;DHT22;47127;47.516;8.596;2024-03-22T10:50:18;16.40;94.90
61253;DHT22;47127;47.516;8.596;2024-03-22T10:52:51;16.70;94.90
61253;DHT22;47127;47.516;8.596;2024-03-22T10:55:38;16.70;94.90
61253;DHT22;47127;47.516;8.596;2024-03-22T10:58:05;16.70;94.90
61253;DHT22;47127;47.516;8.596;2024-03-22T11:00:32;16.70;94.10
61253;DHT22;47127;47.516;8.596;2024-03-22T11:02:58;16.90;94.40
61253;DHT22;47127;47.516;8.596;2024-03-22T11:05:26;16.90;94.60
61253;DHT22;47127;47.516;8.596;2024-03-22T11:08:04;16.90;94.00
61253;DHT22;47127;47.516;8.596;2024-03-22T11:10:33;16.90;93.90
61253;DHT22;47127;47.516;8.596;2024-03-22T11:13:03;17.00;93.90
61253;DHT22;47127;47.516;8.596;2024-03-22T11:15:29;17.40;93.70
61253;DHT22;47127;47.516;8.596;2024-03-22T11:17:55;17.70;93.60
61253;DHT22;47127;47.516;8.596;2024-03-22T11:20:22;17.70;93.70
61253;DHT22;47127;47.516;8.596;2024-03-22T11:22:47;17.90;92.80
61253;DHT22;47127;47.516;8.596;2024-03-22T11:25:13;17.90;93.00
61253;DHT22;47127;47.516;8.596;2024-03-22T11:27:38;17.80;92.10
61253;DHT22;47127;47.516;8.596;2024-03-22T11:30:05;17.70;91.90
61253;DHT22;47127;47.516;8.596;2024-03-22T11:32:31;17.20;92.30
61253;DHT22;47127;47.516;8.596;2024-03-22T11:34:57;17.20;92.50
61253;DHT22;47127;47.516;8.596;2024-03-22T11:37:23;17.50;92.50
61253;DHT22;47127;47.516;8.596;2024-03-22T11:39:49;17.80;92.50
61253;DHT22;47127;47.516;8.596;2024-03-22T11:42:15;17.80;90.80
61253;DHT22;47127;47.516;8.596;2024-03-22T11:44:42;17.90;90.60
61253;DHT22;47127;47.516;8.596;2024-03-22T11:47:08;18.20;90.40
61253;DHT22;47127;47.516;8.596;2024-03-22T11:49:34;18.20;90.40
61253;DHT22;47127;47.516;8.596;2024-03-22T11:52:00;18.20;89.70
61253;DHT22;47127;47.516;8.596;2024-03-22T11:54:26;18.30;90.00
61253;DHT22;47127;47.516;8.596;2024-03-22T11:56:55;18.40;89.80
61253;DHT22;47127;47.516;8.596;2024-03-22T11:59:21;18.50;91.20
61253;DHT22;47127;47.516;8.596;2024-03-22T12:01:47;18.50;90.20
61253;DHT22;47127;47.516;8.596;2024-03-22T12:04:12;18.20;90.90
61253;DHT22;47127;47.516;8.596;2024-03-22T12:06:44;18.20;90.30
61253;DHT22;47127;47.516;8.596;2024-03-22T12:09:13;18.10;90.20
61253;DHT22;47127;47.516;8.596;2024-03-22T12:11:39;18.30;89.80
61253;DHT22;47127;47.516;8.596;2024-03-22T12:14:05;18.80;90.40
61253;DHT22;47127;47.516;8.596;2024-03-22T12:16:31;18.90;89.90
61253;DHT22;47127;47.516;8.596;2024-03-22T12:18:57;18.70;87.90
61253;DHT22;47127;47.516;8.596;2024-03-22T12:21:23;18.80;90.00
61253;DHT22;47127;47.516;8.596;2024-03-22T12:23:49;19.00;87.50
61253;DHT22;47127;47.516;8.596;2024-03-22T12:26:15;18.90;86.00
61253;DHT22;47127;47.516;8.596;2024-03-22T12:28:40;19.00;87.70
61253;DHT22;47127;47.516;8.596;2024-03-22T12:31:08;18.80;84.60
61253;DHT22;47127;47.516;8.596;2024-03-22T12:33:36;18.70;84.80
61253;DHT22;47127;47.516;8.596;2024-03-22T12:36:04;18.90;86.50
61253;DHT22;47127;47.516;8.596;2024-03-22T12:38:29;18.90;86.00
61253;DHT22;47127;47.516;8.596;2024-03-22T12:40:55;19.10;84.00
61253;DHT22;47127;47.516;8.596;2024-03-22T12:43:21;19.10;83.30
61253;DHT22;47127;47.516;8.596;2024-03-22T12:45:47;19.30;81.90
61253;DHT22;47127;47.516;8.596;2024-03-22T12:48:12;19.60;80.90
61253;DHT22;47127;47.516;8.596;2024-03-22T12:50:39;19.40;82.10
61253;DHT22;47127;47.516;8.596;2024-03-22T12:53:05;19.30;80.80
61253;DHT22;47127;47.516;8.596;2024-03-22T12:55:31;19.70;80.60
61253;DHT22;47127;47.516;8.596;2024-03-22T12:57:57;20.10;83.50
61253;DHT22;47127;47.516;8.596;2024-03-22T13:00:23;19.70;78.90
61253;DHT22;47127;47.516;8.596;2024-03-22T13:02:48;19.90;78.60
61253;DHT22;47127;47.516;8.596;2024-03-22T13:05:14;19.90;76.90
61253;DHT22;47127;47.516;8.596;2024-03-22T13:07:41;19.60;76.60
61253;DHT22;47127;47.516;8.596;2024-03-22T13:10:07;19.30;75.70
61253;DHT22;47127;47.516;8.596;2024-03-22T13:12:34;19.30;75.60
61253;DHT22;47127;47.516;8.596;2024-03-22T13:15:03;19.60;78.30
61253;DHT22;47127;47.516;8.596;2024-03-22T13:17:30;19.60;75.30
61253;DHT22;47127;47.516;8.596;2024-03-22T13:19:55;19.60;73.60
61253;DHT22;47127;47.516;8.596;2024-03-22T13:22:21;20.00;78.10
61253;DHT22;47127;47.516;8.596;2024-03-22T13:24:47;20.40;74.30
61253;DHT22;47127;47.516;8.596;2024-03-22T13:27:15;20.10;72.70
61253;DHT22;47127;47.516;8.596;2024-03-22T13:29:41;19.70;73.00
61253;DHT22;47127;47.516;8.596;2024-03-22T13:32:07;19.80;70.60
61253;DHT22;47127;47.516;8.596;2024-03-22T13:34:39;20.00;71.70
61253;DHT22;47127;47.516;8.596;2024-03-22T13:37:15;19.80;70.80
61253;DHT22;47127;47.516;8.596;2024-03-22T13:39:41;20.00;72.00
61253;DHT22;47127;47.516;8.596;2024-03-22T13:42:07;20.20;75.50
61253;DHT22;47127;47.516;8.596;2024-03-22T13:44:33;20.40;72.90
61253;DHT22;47127;47.516;8.596;2024-03-22T13:46:58;20.10;70.90
61253;DHT22;47127;47.516;8.596;2024-03-22T13:49:24;20.30;70.20
61253;DHT22;47127;47.516;8.596;2024-03-22T13:51:50;20.40;70.10
61253;DHT22;47127;47.516;8.596;2024-03-22T13:54:16;20.40;70.20
61253;DHT22;47127;47.516;8.596;2024-03-22T13:56:42;20.40;68.00
61253;DHT22;47127;47.516;8.596;2024-03-22T13:59:11;20.60;67.70
61253;DHT22;47127;47.516;8.596;2024-03-22T14:01:41;20.20;70.00
61253;DHT22;47127;47.516;8.596;2024-03-22T14:04:10;20.10;68.30
61253;DHT22;47127;47.516;8.596;2024-03-22T14:06:37;20.00;69.10
61253;DHT22;47127;47.516;8.596;2024-03-22T14:09:03;19.60;68.90
61253;DHT22;47127;47.516;8.596;2024-03-22T14:11:30;19.60;69.60
61253;DHT22;47127;47.516;8.596;2024-03-22T14:13:58;19.90;69.80
61253;DHT22;47127;47.516;8.596;2024-03-22T14:16:24;20.00;67.60
61253;DHT22;47127;47.516;8.596;2024-03-22T14:18:50;20.10;68.70
61253;DHT22;47127;47.516;8.596;2024-03-22T14:21:16;20.00;67.90
61253;DHT22;47127;47.516;8.596;2024-03-22T14:23:49;20.30;67.70
61253;DHT22;47127;47.516;8.596;2024-03-22T14:26:18;20.20;68.30
61253;DHT22;47127;47.516;8.596;2024-03-22T14:28:44;20.50;70.90
61253;DHT22;47127;47.516;8.596;2024-03-22T14:31:10;21.10;66.90
61253;DHT22;47127;47.516;8.596;2024-03-22T14:33:38;21.50;65.60
61253;DHT22;47127;47.516;8.596;2024-03-22T14:36:05;21.70;64.60
61253;DHT22;47127;47.516;8.596;2024-03-22T14:38:32;21.70;63.60
61253;DHT22;47127;47.516;8.596;2024-03-22T14:40:57;21.30;65.30
61253;DHT22;47127;47.516;8.596;2024-03-22T14:43:24;21.40;67.10
61253;DHT22;47127;47.516;8.596;2024-03-22T14:45:51;21.40;66.50
61253;DHT22;47127;47.516;8.596;2024-03-22T14:48:20;21.50;65.90
61253;DHT22;47127;47.516;8.596;2024-03-22T14:50:46;21.60;68.80
61253;DHT22;47127;47.516;8.596;2024-03-22T14:55:59;21.80;66.40
61253;DHT22;47127;47.516;8.596;2024-03-22T14:58:40;21.60;65.10
61253;DHT22;47127;47.516;8.596;2024-03-22T15:01:38;21.50;66.20
61253;DHT22;47127;47.516;8.596;2024-03-22T15:04:19;21.30;64.30
61253;DHT22;47127;47.516;8.596;2024-03-22T15:06:50;21.10;65.50
61253;DHT22;47127;47.516;8.596;2024-03-22T15:09:51;21.20;67.50
61253;DHT22;47127;47.516;8.596;2024-03-22T15:12:21;21.20;64.80
61253;DHT22;47127;47.516;8.596;2024-03-22T15:14:53;21.00;64.90
61253;DHT22;47127;47.516;8.596;2024-03-22T15:17:19;21.10;65.10
61253;DHT22;47127;47.516;8.596;2024-03-22T15:19:48;20.50;65.40
61253;DHT22;47127;47.516;8.596;2024-03-22T15:22:15;21.10;64.40
61253;DHT22;47127;47.516;8.596;2024-03-22T15:24:48;21.20;64.00
61253;DHT22;47127;47.516;8.596;2024-03-22T15:27:14;21.20;65.60
61253;DHT22;47127;47.516;8.596;2024-03-22T15:29:40;21.00;64.80
61253;DHT22;47127;47.516;8.596;2024-03-22T15:32:06;21.10;64.10
61253;DHT22;47127;47.516;8.596;2024-03-22T15:34:35;21.40;64.50